Time;durP1;ratioP1;P1;durP2;ratioP2;P2;SDS_P1;SDS_P2;PMS_P1;PMS_P2;Temp;Humidity;BMP_temperature;BMP_pressure;BME280_temperature;BME280_humidity;BME280_pressure;Samples;Min_cycle;Max_cycle;Signal;HPM_P1;HPM_P2
2022/03/29 00:01:57;;;;;;;1.63;1.20;;;;;;;-4.94;79.16;99136.56;5089442;28;20543;-77
2022/03/29 00:04:23;;;;;;;1.23;0.90;;;;;;;-4.92;79.38;99145.19;5096609;28;20044;-77
2022/03/29 00:06:49;;;;;;;1.17;0.98;;;;;;;-4.91;78.72;99146.81;5080662;28;20036;-75
2022/03/29 00:09:14;;;;;;;1.85;1.00;;;;;;;-4.93;78.47;99167.63;5114126;28;20509;-75
2022/03/29 00:11:40;;;;;;;1.65;1.13;;;;;;;-4.96;78.08;99155.50;5109848;28;20082;-75
2022/03/29 00:14:06;;;;;;;2.47;1.25;;;;;;;-5.00;79.20;99159.66;5099880;28;20496;-77
2022/03/29 00:16:35;;;;;;;3.03;1.05;;;;;;;-5.03;78.31;99165.44;5096795;28;20406;-77
2022/03/29 00:19:01;;;;;;;2.50;1.00;;;;;;;-5.04;78.75;99171.81;5095969;28;20088;-75
2022/03/29 00:21:27;;;;;;;1.70;1.30;;;;;;;-5.08;78.28;99175.94;5102974;28;20035;-77
2022/03/29 00:23:52;;;;;;;1.88;1.15;;;;;;;-5.11;78.26;99173.72;5113349;28;20055;-76
2022/03/29 00:26:18;;;;;;;1.63;0.90;;;;;;;-5.13;77.93;99183.00;5111820;28;20540;-75
2022/03/29 00:28:44;;;;;;;2.05;1.00;;;;;;;-5.16;78.19;99182.38;5112608;28;20557;-75
2022/03/29 00:31:11;;;;;;;1.60;0.93;;;;;;;-5.19;78.22;99184.69;5095517;28;20036;-76
2022/03/29 00:33:37;;;;;;;4.22;1.00;;;;;;;-5.25;78.63;99199.72;5089992;28;20035;-75
2022/03/29 00:36:02;;;;;;;2.00;1.13;;;;;;;-5.27;78.27;99207.13;5113021;28;20119;-75
2022/03/29 00:38:28;;;;;;;3.00;1.02;;;;;;;-5.27;78.02;99204.44;5099837;28;20043;-75
2022/03/29 00:40:54;;;;;;;1.70;1.10;;;;;;;-5.31;78.60;99203.25;5093220;28;20495;-75
2022/03/29 00:43:20;;;;;;;4.50;1.63;;;;;;;-5.37;78.49;99201.44;5093231;28;20055;-74
2022/03/29 00:45:45;;;;;;;3.28;1.70;;;;;;;-5.42;79.36;99193.22;5106141;28;20398;-76
2022/03/29 00:48:14;;;;;;;3.15;1.83;;;;;;;-5.46;79.27;99197.34;5095781;28;20071;-76
2022/03/29 00:50:41;;;;;;;3.33;1.90;;;;;;;-5.47;78.92;99201.06;5100410;28;20039;-76
2022/03/29 00:53:08;;;;;;;2.97;2.10;;;;;;;-5.47;79.61;99201.88;5099884;28;20032;-76
2022/03/29 00:55:34;;;;;;;2.30;1.63;;;;;;;-5.47;79.13;99191.19;5096514;28;20436;-75
2022/03/29 00:58:06;;;;;;;3.38;1.65;;;;;;;-5.52;78.98;99203.56;5075057;28;20040;-75
2022/03/29 01:00:33;;;;;;;1.80;1.55;;;;;;;-5.57;79.69;99204.16;5092851;28;20028;-76
2022/03/29 01:03:02;;;;;;;2.92;1.80;;;;;;;-5.60;80.17;99201.09;5097327;28;20040;-75
2022/03/29 01:05:28;;;;;;;2.63;1.58;;;;;;;-5.67;79.14;99194.97;5090923;28;20044;-76
2022/03/29 01:07:57;;;;;;;3.13;1.67;;;;;;;-5.70;79.29;99208.78;5077513;28;20054;-76
2022/03/29 01:10:24;;;;;;;2.28;1.50;;;;;;;-5.75;80.19;99209.38;5107647;28;20036;-75
2022/03/29 01:12:54;;;;;;;4.00;2.00;;;;;;;-5.84;79.86;99211.47;5089320;28;20040;-76
2022/03/29 01:15:22;;;;;;;3.33;2.17;;;;;;;-5.87;79.77;99217.25;5098914;28;20048;-75
2022/03/29 01:17:49;;;;;;;1.75;1.30;;;;;;;-5.90;79.21;99220.38;5085135;28;20635;-75
2022/03/29 01:20:19;;;;;;;2.35;1.20;;;;;;;-5.99;80.03;99213.59;5081821;28;20043;-76
2022/03/29 01:22:49;;;;;;;2.22;1.13;;;;;;;-5.98;80.18;99217.91;5111547;28;20149;-76
2022/03/29 01:25:23;;;;;;;1.83;1.10;;;;;;;-6.01;80.30;99229.03;5094309;28;20433;-75
2022/03/29 01:27:51;;;;;;;2.83;1.20;;;;;;;-6.07;80.32;99227.19;5102392;28;20035;-74
2022/03/29 01:30:17;;;;;;;2.30;1.17;;;;;;;-6.11;80.04;99228.63;5086468;28;20036;-74
2022/03/29 01:32:48;;;;;;;1.33;1.00;;;;;;;-6.16;80.13;99226.56;5091885;28;20403;-75
2022/03/29 01:35:17;;;;;;;1.88;1.30;;;;;;;-6.15;79.73;99232.72;5101585;28;20040;-75
2022/03/29 01:37:43;;;;;;;1.60;1.20;;;;;;;-6.16;80.53;99233.75;5099924;28;20489;-74
2022/03/29 01:40:12;;;;;;;3.28;1.20;;;;;;;-6.19;80.69;99239.53;5076695;28;20054;-74
2022/03/29 01:42:38;;;;;;;1.98;1.27;;;;;;;-6.21;79.95;99249.59;5076099;28;20040;-74
2022/03/29 01:45:04;;;;;;;3.80;1.90;;;;;;;-6.21;80.08;99242.41;5101752;28;20043;-75
2022/03/29 01:47:30;;;;;;;1.92;1.65;;;;;;;-6.23;80.60;99243.63;5112529;28;20054;-75
2022/03/29 01:49:56;;;;;;;2.35;1.38;;;;;;;-6.28;80.00;99238.91;5111356;28;20039;-75
2022/03/29 01:52:21;;;;;;;4.15;1.73;;;;;;;-6.30;80.97;99240.13;5090495;28;20057;-75
2022/03/29 01:54:47;;;;;;;3.13;1.58;;;;;;;-6.38;80.31;99238.50;5078321;28;20250;-75
2022/03/29 01:57:12;;;;;;;3.63;1.65;;;;;;;-6.43;80.86;99244.44;5099193;28;20059;-74
2022/03/29 02:02:27;;;;;;;1.95;1.63;;;;;;;-6.46;80.81;99260.06;5098436;28;20043;-75
2022/03/29 02:04:52;;;;;;;1.80;1.30;;;;;;;-6.48;80.85;99256.78;5110355;28;20047;-74
2022/03/29 02:07:18;;;;;;;1.80;1.38;;;;;;;-6.51;80.77;99262.53;5099679;28;20048;-75
2022/03/29 02:09:44;;;;;;;1.77;1.40;;;;;;;-6.51;81.42;99262.53;5080471;28;20078;-74
2022/03/29 02:12:12;;;;;;;1.80;1.55;;;;;;;-6.56;81.30;99276.47;5082987;28;20439;-74
2022/03/29 02:14:38;;;;;;;2.45;1.67;;;;;;;-6.53;81.10;99270.72;5092689;28;20032;-74
2022/03/29 02:17:05;;;;;;;2.05;1.70;;;;;;;-6.57;81.06;99284.69;5106638;28;20050;-74
2022/03/29 02:19:30;;;;;;;3.55;1.90;;;;;;;-6.58;81.17;99281.22;5092528;28;20081;-75
2022/03/29 02:21:56;;;;;;;3.95;1.88;;;;;;;-6.53;80.80;99284.06;5112158;28;20035;-74
2022/03/29 02:24:22;;;;;;;2.38;1.90;;;;;;;-6.54;81.80;99285.09;5112195;28;20126;-75
2022/03/29 02:26:47;;;;;;;3.25;1.58;;;;;;;-6.58;81.15;99289.22;5106749;28;20052;-74
2022/03/29 02:29:13;;;;;;;3.35;2.15;;;;;;;-6.62;81.17;99295.13;5101886;28;20450;-75
2022/03/29 02:31:38;;;;;;;3.08;1.40;;;;;;;-6.62;81.92;99289.78;5111697;28;20058;-75
2022/03/29 02:34:04;;;;;;;2.95;1.58;;;;;;;-6.61;81.73;99289.59;5109571;28;20038;-75
2022/03/29 02:36:30;;;;;;;2.65;1.40;;;;;;;-6.60;81.95;99296.56;5092379;28;20040;-75
2022/03/29 02:38:55;;;;;;;3.22;1.50;;;;;;;-6.64;81.12;99300.66;5100220;28;20036;-75
2022/03/29 02:41:21;;;;;;;1.80;1.42;;;;;;;-6.63;81.08;99298.81;5090836;28;20549;-76
2022/03/29 02:43:46;;;;;;;3.50;1.17;;;;;;;-6.70;81.98;99304.16;5091953;28;20514;-75
2022/03/29 02:46:13;;;;;;;3.15;1.55;;;;;;;-6.75;81.26;99309.28;5097561;28;20494;-75
2022/03/29 02:48:39;;;;;;;1.35;1.23;;;;;;;-6.74;80.90;99313.59;5109364;28;20522;-75
2022/03/29 02:51:04;;;;;;;2.28;1.15;;;;;;;-6.77;80.97;99308.66;5110319;28;20142;-75
2022/03/29 02:53:30;;;;;;;3.13;1.38;;;;;;;-6.77;81.75;99319.31;5104660;28;20521;-75
2022/03/29 02:55:56;;;;;;;1.83;1.30;;;;;;;-6.77;81.22;99317.50;5105873;28;20048;-74
2022/03/29 02:58:22;;;;;;;3.05;1.50;;;;;;;-6.77;81.56;99325.50;5092350;28;20040;-74
2022/03/29 03:00:48;;;;;;;3.20;1.48;;;;;;;-6.79;81.74;99314.19;5099526;28;20074;-74
2022/03/29 03:03:14;;;;;;;1.52;1.10;;;;;;;-6.83;81.90;99325.47;5078329;28;20044;-74
2022/03/29 03:05:39;;;;;;;2.05;1.30;;;;;;;-6.89;81.02;99321.75;5090791;28;20043;-74
2022/03/29 03:08:05;;;;;;;2.05;1.38;;;;;;;-6.95;80.75;99321.72;5093686;28;20036;-74
2022/03/29 03:10:31;;;;;;;1.92;1.20;;;;;;;-6.95;80.70;99319.06;5108553;28;20077;-74
2022/03/29 03:12:57;;;;;;;2.03;1.10;;;;;;;-6.93;81.28;99317.88;5082484;28;20042;-75
2022/03/29 03:15:23;;;;;;;1.35;1.00;;;;;;;-6.95;80.80;99329.72;5072698;28;20036;-75
2022/03/29 03:17:53;;;;;;;1.23;1.00;;;;;;;-6.99;80.61;99327.47;5091293;28;20513;-75
2022/03/29 03:20:21;;;;;;;2.75;1.23;;;;;;;-7.03;80.63;99318.22;5105935;28;20504;-74
2022/03/29 03:22:47;;;;;;;2.20;1.10;;;;;;;-7.08;80.53;99325.19;5078338;28;20048;-75
2022/03/29 03:25:13;;;;;;;3.10;1.17;;;;;;;-7.05;80.79;99328.28;5091622;28;20074;-73
2022/03/29 03:27:40;;;;;;;2.65;1.30;;;;;;;-7.01;80.40;99329.50;5090861;28;20538;-74
2022/03/29 03:30:12;;;;;;;2.38;1.52;;;;;;;-7.06;80.58;99329.28;5073362;28;20052;-73
2022/03/29 03:32:38;;;;;;;2.80;1.38;;;;;;;-7.09;80.02;99344.88;5084228;28;20040;-74
2022/03/29 03:35:04;;;;;;;1.80;1.20;;;;;;;-7.08;80.51;99326.00;5092939;28;20066;-74
2022/03/29 03:37:30;;;;;;;4.00;1.60;;;;;;;-7.09;80.20;99335.03;5075645;28;20101;-74
2022/03/29 03:39:55;;;;;;;5.38;1.77;;;;;;;-7.12;79.58;99330.06;5105503;28;20497;-74
2022/03/29 03:42:21;;;;;;;2.95;1.30;;;;;;;-7.12;79.48;99329.25;5115310;28;20039;-74
2022/03/29 03:44:47;;;;;;;3.25;1.30;;;;;;;-7.18;79.77;99330.88;5114834;28;20039;-74
2022/03/29 03:47:13;;;;;;;2.78;0.93;;;;;;;-7.21;79.69;99327.78;5077545;28;20447;-74
2022/03/29 03:49:38;;;;;;;1.23;1.00;;;;;;;-7.24;79.60;99331.69;5094016;28;20065;-74
2022/03/29 03:52:05;;;;;;;3.10;1.10;;;;;;;-7.23;79.36;99335.16;5094305;28;20032;-74
2022/03/29 03:54:35;;;;;;;1.20;0.80;;;;;;;-7.26;78.88;99344.38;5097746;28;20032;-74
2022/03/29 03:57:21;;;;;;;1.52;0.60;;;;;;;-7.24;78.95;99346.84;5105538;28;21762;-73
2022/03/29 03:59:48;;;;;;;1.70;1.00;;;;;;;-6.96;78.94;99350.22;5100606;28;20039;-74
2022/03/29 04:02:14;;;;;;;2.28;1.42;;;;;;;-6.66;77.67;99356.06;5095781;28;20036;-73
2022/03/29 04:04:40;;;;;;;1.75;0.80;;;;;;;-6.35;77.85;99352.84;5098043;28;20035;-75
2022/03/29 04:07:06;;;;;;;1.58;1.08;;;;;;;-5.97;77.03;99355.75;5113510;28;20172;-74
2022/03/29 04:09:35;;;;;;;1.10;0.90;;;;;;;-5.53;76.41;99356.94;5078057;28;20058;-75
2022/03/29 04:12:07;;;;;;;1.30;1.00;;;;;;;-5.24;76.34;99360.94;5103705;28;20489;-74
2022/03/29 04:14:33;;;;;;;1.15;1.00;;;;;;;-5.20;74.38;99368.38;5114136;28;20040;-74
2022/03/29 04:16:58;;;;;;;2.72;0.88;;;;;;;-5.16;74.66;99372.25;5095624;28;20050;-74
2022/03/29 04:19:24;;;;;;;1.02;0.93;;;;;;;-5.19;74.08;99375.34;5113936;28;20080;-74
2022/03/29 04:21:50;;;;;;;3.22;1.20;;;;;;;-5.31;73.02;99381.53;5109630;28;20032;-74
2022/03/29 04:24:16;;;;;;;1.30;1.20;;;;;;;-5.40;73.14;99377.44;5114247;28;20039;-74
2022/03/29 04:26:41;;;;;;;2.25;1.20;;;;;;;-5.45;73.10;99378.06;5105355;28;20101;-74
2022/03/29 04:29:07;;;;;;;3.92;1.38;;;;;;;-5.42;73.52;99384.84;5084429;28;20115;-75
2022/03/29 04:31:33;;;;;;;3.25;1.38;;;;;;;-5.35;73.61;99394.50;5108615;27;20398;-75
2022/03/29 04:34:00;;;;;;;1.65;1.20;;;;;;;-5.24;73.08;99387.69;5113517;28;20126;-75
2022/03/29 04:36:26;;;;;;;2.95;1.40;;;;;;;-5.21;72.27;99393.47;5095913;28;20056;-74
2022/03/29 04:38:52;;;;;;;2.08;1.50;;;;;;;-5.13;72.42;99387.03;5093581;28;20036;-74
2022/03/29 04:41:18;;;;;;;2.22;1.10;;;;;;;-4.96;72.56;99387.41;5080465;28;20039;-75
2022/03/29 04:43:44;;;;;;;1.40;1.23;;;;;;;-4.77;71.92;99394.53;5074917;28;20568;-74
2022/03/29 04:46:09;;;;;;;2.03;1.40;;;;;;;-4.57;71.76;99389.09;5093248;28;20040;-75
2022/03/29 04:48:36;;;;;;;2.20;1.52;;;;;;;-4.46;70.93;99398.31;5096593;28;20105;-74
2022/03/29 04:51:02;;;;;;;1.60;1.30;;;;;;;-4.53;69.42;99406.34;5093351;28;20048;-75
2022/03/29 04:53:28;;;;;;;2.38;1.17;;;;;;;-4.58;69.55;99393.63;5093025;28;20047;-75
2022/03/29 04:55:55;;;;;;;2.50;1.58;;;;;;;-4.65;69.85;99400.03;5093085;28;20044;-74
2022/03/29 04:58:21;;;;;;;3.33;1.70;;;;;;;-4.76;69.63;99401.53;5075547;28;20043;-74
2022/03/29 05:00:46;;;;;;;2.00;1.65;;;;;;;-4.79;69.85;99393.94;5092785;28;20032;-74
2022/03/29 05:03:12;;;;;;;4.28;1.58;;;;;;;-4.71;69.30;99388.31;5093044;28;20036;-75
2022/03/29 05:05:38;;;;;;;2.30;1.58;;;;;;;-4.69;69.45;99401.47;5093104;28;20056;-75
2022/03/29 05:08:04;;;;;;;2.30;1.30;;;;;;;-4.60;69.43;99394.88;5069490;28;20185;-74
2022/03/29 05:10:29;;;;;;;2.92;1.30;;;;;;;-4.37;70.27;99407.72;5090803;28;20184;-74
2022/03/29 05:12:56;;;;;;;3.08;1.02;;;;;;;-4.17;68.15;99405.72;5074711;28;20093;-74
2022/03/29 05:15:22;;;;;;;2.92;1.42;;;;;;;-3.86;67.74;99406.75;5074345;28;20635;-74
2022/03/29 05:17:48;;;;;;;2.35;1.00;;;;;;;-3.66;67.44;99397.53;5092557;28;20054;-74
2022/03/29 05:20:15;;;;;;;1.65;1.08;;;;;;;-3.33;66.69;99389.16;5057972;28;20406;-75
2022/03/29 05:22:51;;;;;;;1.65;1.00;;;;;;;-3.24;64.43;99388.91;5092375;28;20040;-75
2022/03/29 05:25:19;;;;;;;1.95;1.17;;;;;;;-3.24;63.67;99387.03;5092232;28;20132;-74
2022/03/29 05:27:46;;;;;;;2.70;1.13;;;;;;;-2.69;63.89;99378.16;5092051;28;20417;-75
2022/03/29 05:30:12;;;;;;;2.33;1.00;;;;;;;-2.48;62.17;99380.34;5074398;28;20077;-75
2022/03/29 05:32:38;;;;;;;1.65;1.15;;;;;;;-2.45;62.25;99369.97;5074336;28;20119;-74
2022/03/29 05:35:05;;;;;;;2.22;1.30;;;;;;;-2.18;61.20;99374.97;5092318;28;20118;-75
2022/03/29 05:37:31;;;;;;;1.45;1.35;;;;;;;-2.38;60.85;99379.81;5074827;28;20135;-75
2022/03/29 05:39:56;;;;;;;1.90;1.45;;;;;;;-2.58;61.85;99390.81;5092160;28;20068;-75
2022/03/29 05:42:22;;;;;;;1.33;1.13;;;;;;;-2.37;61.36;99379.59;5092016;28;20444;-76
2022/03/29 05:44:48;;;;;;;2.75;1.20;;;;;;;-2.21;60.89;99389.69;5091735;28;20074;-75
2022/03/29 05:49:58;;;;;;;1.48;1.20;;;;;;;-1.97;60.29;99393.25;5091734;28;20040;-75
2022/03/29 05:52:25;;;;;;;2.78;1.33;;;;;;;-1.61;59.18;99407.56;5091696;28;20050;-75
2022/03/29 05:54:50;;;;;;;2.85;1.40;;;;;;;-1.55;60.20;99393.22;5091953;28;20071;-75
2022/03/29 05:57:16;;;;;;;2.33;1.50;;;;;;;-1.47;58.95;99406.31;5091914;28;20104;-75
2022/03/29 05:59:43;;;;;;;1.50;1.33;;;;;;;-1.63;58.91;99405.13;5076695;28;20134;-74
2022/03/29 06:02:09;;;;;;;3.28;1.33;;;;;;;-2.01;58.90;99400.16;5098749;28;20112;-75
2022/03/29 06:04:35;;;;;;;2.78;1.33;;;;;;;-1.97;59.38;99408.56;5111549;28;20047;-75
2022/03/29 06:07:04;;;;;;;3.42;1.50;;;;;;;-1.99;59.92;99405.28;5091949;28;20035;-75
2022/03/29 06:09:31;;;;;;;1.92;1.35;;;;;;;-1.92;58.79;99409.50;5094685;28;20486;-76
2022/03/29 06:11:56;;;;;;;5.45;1.75;;;;;;;-1.76;58.94;99417.94;5091586;28;20079;-76
2022/03/29 06:14:22;;;;;;;1.80;1.30;;;;;;;-1.91;58.40;99421.06;5092434;28;20061;-74
2022/03/29 06:16:48;;;;;;;2.42;1.35;;;;;;;-1.93;58.48;99412.41;5073462;28;20525;-72
2022/03/29 06:19:14;;;;;;;3.38;1.50;;;;;;;-1.66;58.65;99418.22;5092646;28;20043;-72
2022/03/29 06:21:40;;;;;;;2.05;1.50;;;;;;;-1.50;58.97;99417.53;5111468;28;20040;-73
2022/03/29 06:24:07;;;;;;;3.25;1.40;;;;;;;-1.34;57.93;99421.41;5109203;28;20520;-73
2022/03/29 06:26:36;;;;;;;1.75;1.40;;;;;;;-1.12;58.19;99414.38;5093550;28;20423;-73
2022/03/29 06:29:06;;;;;;;2.35;1.30;;;;;;;-0.90;57.08;99411.91;5090996;28;20143;-73
2022/03/29 06:31:32;;;;;;;3.08;1.80;;;;;;;-0.80;56.34;99422.09;5073359;28;20058;-73
2022/03/29 06:33:58;;;;;;;2.72;1.63;;;;;;;-0.37;56.75;99417.03;5091780;28;20032;-73
2022/03/29 06:36:25;;;;;;;2.00;1.42;;;;;;;0.02;56.18;99422.63;5092701;28;20505;-73
2022/03/29 06:38:51;;;;;;;2.33;1.25;;;;;;;0.22;53.39;99425.69;5072763;28;20620;-73
2022/03/29 06:41:16;;;;;;;3.17;1.20;;;;;;;-0.36;53.54;99424.06;5091037;28;20036;-73
2022/03/29 06:43:42;;;;;;;2.80;1.50;;;;;;;-0.49;53.78;99428.94;5091349;28;20059;-73
2022/03/29 06:46:09;;;;;;;3.35;1.90;;;;;;;-0.80;54.17;99432.84;5075684;28;20070;-72
2022/03/29 06:48:35;;;;;;;3.47;1.83;;;;;;;-0.23;54.96;99433.75;5061803;28;20046;-74
2022/03/29 06:51:01;;;;;;;2.33;1.48;;;;;;;0.12;54.08;99435.47;5108850;28;20503;-75
2022/03/29 06:53:27;;;;;;;2.15;1.40;;;;;;;0.11;52.72;99426.56;5099071;28;20075;-76
2022/03/29 06:55:52;;;;;;;2.70;1.23;;;;;;;0.27;53.10;99428.47;5072505;28;20077;-75
2022/03/29 06:58:20;;;;;;;1.98;1.42;;;;;;;0.68;51.70;99423.72;5076898;28;20443;-75
2022/03/29 07:00:46;;;;;;;2.47;1.15;;;;;;;0.77;51.67;99443.03;5091126;28;20582;-75
2022/03/29 07:03:11;;;;;;;1.70;1.08;;;;;;;0.28;51.56;99440.91;5090571;28;20134;-74
2022/03/29 07:05:40;;;;;;;2.28;1.98;;;;;;;-0.21;51.56;99447.81;5097459;28;20059;-74
2022/03/29 07:08:06;;;;;;;1.88;1.10;;;;;;;-0.44;52.52;99443.31;5077800;28;20039;-75
2022/03/29 07:13:16;;;;;;;1.35;1.25;;;;;;;-0.73;54.17;99455.91;5094123;28;20422;-75
2022/03/29 07:15:42;;;;;;;1.23;1.13;;;;;;;-0.25;54.54;99457.44;5094608;28;20040;-74
2022/03/29 07:18:08;;;;;;;1.98;1.48;;;;;;;0.01;52.85;99457.94;5081749;28;20032;-73
2022/03/29 07:20:34;;;;;;;2.30;1.73;;;;;;;-0.21;53.55;99469.38;5110844;28;20240;-73
2022/03/29 07:22:59;;;;;;;2.42;1.30;;;;;;;0.00;52.61;99462.53;5101774;27;20110;-73
2022/03/29 07:25:27;;;;;;;3.10;1.60;;;;;;;-0.01;52.19;99455.47;5096358;28;20056;-73
2022/03/29 07:27:53;;;;;;;2.42;1.67;;;;;;;0.11;52.85;99463.50;5101633;28;20528;-73
2022/03/29 07:30:20;;;;;;;2.38;1.60;;;;;;;0.10;52.74;99457.28;5076884;28;20052;-74
2022/03/29 07:32:53;;;;;;;3.33;1.40;;;;;;;0.38;51.92;99466.44;5094426;28;20127;-74
2022/03/29 07:35:20;;;;;;;4.40;1.60;;;;;;;0.10;51.35;99473.47;5086794;28;20039;-73
2022/03/29 07:37:47;;;;;;;2.40;1.55;;;;;;;-0.01;52.21;99479.72;5103269;28;20036;-73
2022/03/29 07:40:16;;;;;;;1.90;1.27;;;;;;;0.10;51.52;99478.06;5114493;28;20040;-73
2022/03/29 07:42:41;;;;;;;2.85;1.70;;;;;;;-0.06;51.23;99482.34;5105369;28;20051;-75
2022/03/29 07:45:10;;;;;;;1.30;1.20;;;;;;;-0.67;51.47;99483.78;5079749;27;20043;-73
2022/03/29 07:47:35;;;;;;;1.58;1.27;;;;;;;-0.89;52.65;99477.34;5098800;28;20040;-74
2022/03/29 07:50:06;;;;;;;1.67;1.20;;;;;;;-0.19;51.92;99483.41;5093464;28;20050;-75
2022/03/29 07:52:35;;;;;;;2.85;1.50;;;;;;;0.52;51.80;99483.94;5103028;27;20039;-74
2022/03/29 07:55:03;;;;;;;1.77;1.33;;;;;;;1.02;50.33;99481.22;5134779;27;20107;-74
2022/03/29 07:57:28;;;;;;;1.70;1.50;;;;;;;0.69;48.02;99487.47;5086479;28;20165;-74
2022/03/29 07:59:54;;;;;;;3.72;1.45;;;;;;;0.49;49.26;99492.50;5059390;28;20135;-74
2022/03/29 08:02:19;;;;;;;1.75;1.40;;;;;;;0.52;49.61;99492.88;5098805;27;20042;-73
2022/03/29 08:04:45;;;;;;;1.65;1.20;;;;;;;1.15;48.86;99497.09;5121570;27;20129;-72
2022/03/29 08:07:11;;;;;;;1.48;1.38;;;;;;;2.07;48.07;99488.28;5112368;27;20028;-74
2022/03/29 08:09:37;;;;;;;3.45;1.50;;;;;;;2.72;46.76;99487.31;5104870;28;20039;-73
2022/03/29 08:12:03;;;;;;;2.80;1.38;;;;;;;3.00;45.28;99488.09;5093782;28;20040;-73
2022/03/29 08:14:29;;;;;;;3.33;1.30;;;;;;;2.55;44.40;99492.03;5097405;28;20051;-73
2022/03/29 08:16:56;;;;;;;2.85;1.50;;;;;;;2.02;44.87;99499.06;5101787;28;20494;-73
2022/03/29 08:19:22;;;;;;;2.20;1.38;;;;;;;1.20;45.57;99502.56;5113167;28;20130;-72
2022/03/29 08:21:49;;;;;;;1.70;1.10;;;;;;;0.64;46.72;99508.97;5098537;28;20036;-74
2022/03/29 08:24:21;;;;;;;1.52;1.20;;;;;;;0.35;45.71;99510.91;5092299;28;20043;-73
2022/03/29 08:26:48;;;;;;;3.33;1.35;;;;;;;0.00;47.28;99508.38;5093014;28;20094;-72
2022/03/29 08:29:21;;;;;;;1.95;1.65;;;;;;;-0.03;48.30;99514.22;5093550;28;20139;-73
2022/03/29 08:31:49;;;;;;;2.17;1.38;;;;;;;-0.14;47.70;99517.78;5088081;28;20051;-74
2022/03/29 08:34:16;;;;;;;1.27;1.00;;;;;;;-0.34;47.67;99516.31;5094095;28;20044;-73
2022/03/29 08:36:41;;;;;;;1.63;1.33;;;;;;;-0.53;47.01;99519.34;5093430;28;20043;-73
2022/03/29 08:39:08;;;;;;;0.90;0.90;;;;;;;-0.79;48.20;99509.91;5092939;28;20065;-75
2022/03/29 08:41:46;;;;;;;1.33;1.23;;;;;;;-0.96;47.75;99515.16;5097835;28;20042;-74
2022/03/29 08:44:12;;;;;;;2.30;1.27;;;;;;;-0.86;47.47;99512.72;5094842;28;20077;-74
2022/03/29 08:46:41;;;;;;;1.83;1.20;;;;;;;-0.93;46.71;99515.50;5113716;28;20128;-74
2022/03/29 08:49:08;;;;;;;2.80;1.35;;;;;;;-0.94;46.57;99519.25;5112677;28;20126;-73
2022/03/29 08:51:36;;;;;;;2.53;1.20;;;;;;;-0.67;47.75;99519.63;5102669;28;20181;-75
2022/03/29 08:54:02;;;;;;;6.63;1.40;;;;;;;0.02;48.29;99518.91;5098147;28;20402;-74
2022/03/29 08:56:28;;;;;;;1.48;1.27;;;;;;;0.37;44.98;99518.75;5093388;28;20791;-72
2022/03/29 08:58:53;;;;;;;3.10;1.45;;;;;;;0.84;46.02;99522.81;5093521;28;20038;-74
2022/03/29 09:01:21;;;;;;;1.30;1.20;;;;;;;0.51;44.87;99514.69;5091476;28;20549;-74
2022/03/29 09:04:05;;;;;;;1.73;1.00;;;;;;;-0.17;44.75;99529.88;5093404;28;20068;-74
2022/03/29 09:06:31;;;;;;;2.10;1.30;;;;;;;-0.44;46.40;99532.25;5092230;28;20050;-75
2022/03/29 09:08:57;;;;;;;2.88;1.40;;;;;;;-0.48;47.49;99532.97;5094810;28;20041;-76
2022/03/29 09:11:22;;;;;;;1.35;1.10;;;;;;;-0.46;47.49;99536.25;5098901;28;20039;-74
2022/03/29 09:14:08;;;;;;;2.65;1.33;;;;;;;-0.75;48.08;99533.44;5113161;28;20077;-73
2022/03/29 09:16:34;;;;;;;1.58;1.38;;;;;;;-0.74;48.29;99536.94;5093347;28;20047;-75
2022/03/29 09:19:00;;;;;;;1.63;1.38;;;;;;;-0.96;47.79;99540.22;5112891;28;20035;-75
2022/03/29 09:21:27;;;;;;;1.38;1.20;;;;;;;-1.07;48.25;99535.63;5090818;28;20042;-75
2022/03/29 09:24:17;;;;;;;1.60;1.30;;;;;;;-1.41;48.15;99539.91;5094375;28;20032;-74
2022/03/29 09:26:45;;;;;;;2.47;1.50;;;;;;;-1.40;49.55;99540.72;5112399;28;20044;-74
2022/03/29 09:29:19;;;;;;;2.00;1.30;;;;;;;-1.24;49.42;99531.97;5092543;28;20570;-74
2022/03/29 09:31:46;;;;;;;1.50;1.17;;;;;;;-1.13;47.26;99541.13;5092005;28;20479;-73
2022/03/29 09:34:17;;;;;;;3.22;1.00;;;;;;;-1.32;45.87;99533.16;5091992;28;20123;-75
2022/03/29 09:40:38;;;;;;;1.17;1.08;;;;;;;-1.14;44.92;99534.94;5098174;28;20035;-75
2022/03/29 09:43:25;;;;;;;1.98;1.20;;;;;;;-1.52;45.96;99538.84;5111547;28;20553;-75
2022/03/29 09:45:55;;;;;;;1.13;0.98;;;;;;;-1.72;45.96;99538.31;5073635;28;20565;-73
2022/03/29 09:48:38;;;;;;;1.92;1.38;;;;;;;-1.52;46.64;99552.28;5092817;28;20278;-72
2022/03/29 09:51:10;;;;;;;2.25;1.40;;;;;;;-1.38;46.61;99538.66;5108528;28;20555;-74
2022/03/29 09:53:39;;;;;;;5.82;1.40;;;;;;;-1.48;47.31;99533.81;5107333;28;20047;-72
2022/03/29 09:56:08;;;;;;;2.58;1.35;;;;;;;-1.42;45.26;99540.94;5107975;28;20069;-74
2022/03/29 09:58:34;;;;;;;2.92;1.48;;;;;;;-1.50;45.91;99537.78;5112301;28;20071;-74
2022/03/29 10:01:00;;;;;;;1.20;1.10;;;;;;;-1.38;45.58;99546.72;5111610;28;20027;-74
2022/03/29 10:03:27;;;;;;;1.40;1.30;;;;;;;-1.26;45.30;99542.16;5104983;28;20036;-74
2022/03/29 10:05:58;;;;;;;1.73;1.23;;;;;;;-1.18;44.42;99539.16;5111846;28;20490;-74
2022/03/29 10:11:15;;;;;;;3.03;1.20;;;;;;;-1.09;45.34;99547.69;5076505;28;20494;-74
2022/03/29 10:13:41;;;;;;;1.85;1.30;;;;;;;-1.11;44.52;99542.53;5091201;28;20047;-75
2022/03/29 10:16:16;;;;;;;1.85;1.60;;;;;;;-1.30;44.52;99549.88;5095626;28;20046;-73
2022/03/29 10:18:43;;;;;;;2.47;1.38;;;;;;;-0.98;44.35;99545.03;5076519;28;20040;-72
2022/03/29 10:21:14;;;;;;;2.97;1.33;;;;;;;-0.77;43.89;99535.53;5056913;28;20032;-71
2022/03/29 10:23:43;;;;;;;1.60;1.40;;;;;;;-0.70;45.26;99535.41;5096509;28;20046;-74
2022/03/29 10:26:09;;;;;;;1.92;1.17;;;;;;;-0.59;44.72;99548.06;5093154;28;20058;-73
2022/03/29 10:28:35;;;;;;;2.58;1.40;;;;;;;-0.46;44.68;99550.53;5092322;28;20039;-72
2022/03/29 10:31:01;;;;;;;2.03;1.42;;;;;;;-0.34;44.51;99545.94;5090286;28;20039;-74
2022/03/29 10:33:31;;;;;;;1.33;1.20;;;;;;;-0.21;44.94;99544.84;5091121;28;20520;-73
2022/03/29 10:36:00;;;;;;;2.45;1.73;;;;;;;-0.04;44.72;99555.72;5057044;28;20131;-73
2022/03/29 10:38:47;;;;;;;1.92;1.70;;;;;;;-0.06;42.54;99553.25;5087580;28;20031;-73
2022/03/29 10:41:28;;;;;;;1.42;1.20;;;;;;;-0.23;43.65;99541.56;5100639;28;20036;-73
2022/03/29 10:44:14;;;;;;;2.63;1.30;;;;;;;-0.38;43.79;99550.16;5095057;28;20051;-73
2022/03/29 10:46:46;;;;;;;2.70;1.48;;;;;;;-0.39;43.41;99548.50;5087390;28;20058;-72
2022/03/29 10:49:20;;;;;;;2.00;1.42;;;;;;;-0.41;43.04;99547.94;5103821;28;20031;-72
2022/03/29 10:51:53;;;;;;;4.68;1.40;;;;;;;-0.43;43.54;99543.84;5108982;28;20031;-72
2022/03/29 10:54:38;;;;;;;2.28;1.35;;;;;;;-0.55;42.56;99538.44;5077629;28;20044;-73
2022/03/29 10:57:08;;;;;;;1.55;1.10;;;;;;;-0.62;42.40;99553.94;5106597;28;20498;-73
2022/03/29 10:59:36;;;;;;;1.15;1.00;;;;;;;-0.76;42.78;99552.53;5091006;28;20509;-74
2022/03/29 11:02:12;;;;;;;1.20;1.10;;;;;;;-0.73;43.15;99547.47;5078801;28;20036;-73
2022/03/29 11:05:06;;;;;;;1.52;1.35;;;;;;;-0.82;44.56;99561.53;5074472;28;20036;-72
2022/03/29 11:07:37;;;;;;;1.38;1.10;;;;;;;-0.91;45.04;99551.09;5110232;28;20054;-72
2022/03/29 11:10:14;;;;;;;2.25;1.15;;;;;;;-1.00;45.24;99555.22;5111327;28;20039;-72
2022/03/29 11:12:45;;;;;;;3.22;1.48;;;;;;;-1.07;45.63;99561.72;5111160;28;20039;-73
2022/03/29 11:15:36;;;;;;;1.58;1.17;;;;;;;-1.68;46.47;99566.38;5101388;28;20040;-73
2022/03/29 11:18:07;;;;;;;3.47;1.30;;;;;;;-1.92;47.52;99556.53;5091399;28;20063;-73
2022/03/29 11:20:35;;;;;;;2.88;1.20;;;;;;;-1.86;47.44;99566.41;5054450;28;20494;-72
2022/03/29 11:23:06;;;;;;;1.35;1.20;;;;;;;-2.09;47.79;99574.31;5090684;28;20047;-72
2022/03/29 11:25:39;;;;;;;1.58;1.20;;;;;;;-2.31;47.75;99564.03;5090594;28;20048;-72
2022/03/29 11:28:16;;;;;;;2.08;1.40;;;;;;;-2.21;47.26;99561.66;5098559;28;20036;-73
2022/03/29 11:30:42;;;;;;;1.30;1.20;;;;;;;-2.05;47.78;99564.78;5086652;28;20116;-74
2022/03/29 11:33:10;;;;;;;1.13;0.98;;;;;;;-1.82;47.21;99559.53;5081191;28;20044;-73
2022/03/29 11:35:37;;;;;;;1.02;0.90;;;;;;;-1.66;46.20;99563.44;5091110;28;20039;-73
2022/03/29 11:38:13;;;;;;;1.13;0.90;;;;;;;-1.72;45.68;99559.00;5096383;28;20407;-73
2022/03/29 11:40:40;;;;;;;1.67;1.23;;;;;;;-1.75;47.11;99565.63;5073196;28;20040;-72
2022/03/29 11:43:10;;;;;;;1.77;1.67;;;;;;;-1.50;46.16;99557.44;5090841;28;20101;-73
2022/03/29 11:45:42;;;;;;;1.05;0.80;;;;;;;-1.29;44.90;99548.00;5072900;28;20479;-72
2022/03/29 11:48:13;;;;;;;1.17;0.80;;;;;;;-1.03;43.57;99544.91;5091297;28;20047;-76
2022/03/29 11:50:52;;;;;;;1.08;0.95;;;;;;;-0.91;42.46;99544.91;5091816;28;20051;-76
2022/03/29 11:53:25;;;;;;;1.10;1.00;;;;;;;-0.88;42.24;99552.50;5074122;28;20158;-74